sensor_id;sensor_type;location;lat;lon;timestamp;P1;durP1;ratioP1;P2;durP2;ratioP2
61096;SDS011;46977;50.936;6.908;2022-09-03T00:00:18;2.85;;;0.90;;
61096;SDS011;46977;50.936;6.908;2022-09-03T00:03:25;1.08;;;0.75;;
61096;SDS011;46977;50.936;6.908;2022-09-03T00:06:31;1.25;;;1.10;;
61096;SDS011;46977;50.936;6.908;2022-09-03T00:09:40;2.80;;;1.00;;
61096;SDS011;46977;50.936;6.908;2022-09-03T00:12:44;2.25;;;1.08;;
61096;SDS011;46977;50.936;6.908;2022-09-03T00:15:49;3.15;;;1.20;;
61096;SDS011;46977;50.936;6.908;2022-09-03T00:18:53;2.15;;;1.00;;
61096;SDS011;46977;50.936;6.908;2022-09-03T00:21:59;1.50;;;0.80;;
61096;SDS011;46977;50.936;6.908;2022-09-03T00:25:05;2.60;;;1.20;;
61096;SDS011;46977;50.936;6.908;2022-09-03T00:28:12;2.13;;;1.00;;
61096;SDS011;46977;50.936;6.908;2022-09-03T00:31:21;1.80;;;1.10;;
61096;SDS011;46977;50.936;6.908;2022-09-03T00:34:29;2.08;;;1.25;;
61096;SDS011;46977;50.936;6.908;2022-09-03T00:37:33;1.60;;;1.20;;
61096;SDS011;46977;50.936;6.908;2022-09-03T00:40:43;1.77;;;1.00;;
61096;SDS011;46977;50.936;6.908;2022-09-03T00:43:56;3.13;;;1.00;;
61096;SDS011;46977;50.936;6.908;2022-09-03T00:47:15;3.43;;;1.17;;
61096;SDS011;46977;50.936;6.908;2022-09-03T00:50:22;3.42;;;1.10;;
61096;SDS011;46977;50.936;6.908;2022-09-03T00:53:32;2.93;;;1.10;;
61096;SDS011;46977;50.936;6.908;2022-09-03T00:56:37;3.00;;;0.98;;
61096;SDS011;46977;50.936;6.908;2022-09-03T00:59:44;1.05;;;0.95;;
61096;SDS011;46977;50.936;6.908;2022-09-03T01:02:55;2.72;;;0.90;;
61096;SDS011;46977;50.936;6.908;2022-09-03T01:06:06;5.05;;;1.33;;
61096;SDS011;46977;50.936;6.908;2022-09-03T01:09:18;1.10;;;1.00;;
61096;SDS011;46977;50.936;6.908;2022-09-03T01:15:35;1.80;;;1.20;;
61096;SDS011;46977;50.936;6.908;2022-09-03T01:18:47;5.25;;;1.40;;
61096;SDS011;46977;50.936;6.908;2022-09-03T01:22:00;1.35;;;1.10;;
61096;SDS011;46977;50.936;6.908;2022-09-03T01:25:23;4.90;;;1.30;;
61096;SDS011;46977;50.936;6.908;2022-09-03T01:28:39;4.07;;;1.30;;
61096;SDS011;46977;50.936;6.908;2022-09-03T01:31:49;1.83;;;1.05;;
61096;SDS011;46977;50.936;6.908;2022-09-03T01:34:59;3.75;;;1.10;;
61096;SDS011;46977;50.936;6.908;2022-09-03T01:38:08;2.53;;;1.30;;
61096;SDS011;46977;50.936;6.908;2022-09-03T01:41:18;4.38;;;1.27;;
61096;SDS011;46977;50.936;6.908;2022-09-03T01:48:42;1.77;;;1.20;;
61096;SDS011;46977;50.936;6.908;2022-09-03T01:51:48;1.10;;;1.00;;
61096;SDS011;46977;50.936;6.908;2022-09-03T01:54:58;3.53;;;1.15;;
61096;SDS011;46977;50.936;6.908;2022-09-03T01:58:04;2.63;;;1.20;;
61096;SDS011;46977;50.936;6.908;2022-09-03T02:01:09;2.88;;;1.00;;
61096;SDS011;46977;50.936;6.908;2022-09-03T02:04:23;2.60;;;0.80;;
61096;SDS011;46977;50.936;6.908;2022-09-03T02:07:28;1.20;;;0.93;;
61096;SDS011;46977;50.936;6.908;2022-09-03T02:10:39;2.70;;;1.00;;
61096;SDS011;46977;50.936;6.908;2022-09-03T02:13:44;2.63;;;1.00;;
61096;SDS011;46977;50.936;6.908;2022-09-03T02:16:49;2.17;;;1.10;;
61096;SDS011;46977;50.936;6.908;2022-09-03T02:19:53;4.47;;;1.30;;
61096;SDS011;46977;50.936;6.908;2022-09-03T02:22:56;2.97;;;1.15;;
61096;SDS011;46977;50.936;6.908;2022-09-03T02:26:00;1.52;;;1.05;;
61096;SDS011;46977;50.936;6.908;2022-09-03T02:29:03;2.45;;;1.00;;
61096;SDS011;46977;50.936;6.908;2022-09-03T02:32:06;0.85;;;0.80;;
61096;SDS011;46977;50.936;6.908;2022-09-03T02:35:10;1.83;;;0.82;;
61096;SDS011;46977;50.936;6.908;2022-09-03T02:38:15;1.23;;;0.90;;
61096;SDS011;46977;50.936;6.908;2022-09-03T02:41:18;4.55;;;1.27;;
61096;SDS011;46977;50.936;6.908;2022-09-03T02:44:23;2.25;;;0.93;;
61096;SDS011;46977;50.936;6.908;2022-09-03T02:47:30;2.45;;;1.25;;
61096;SDS011;46977;50.936;6.908;2022-09-03T02:50:38;1.27;;;0.82;;
61096;SDS011;46977;50.936;6.908;2022-09-03T02:53:41;1.83;;;1.00;;
61096;SDS011;46977;50.936;6.908;2022-09-03T02:56:44;2.25;;;1.10;;
61096;SDS011;46977;50.936;6.908;2022-09-03T02:59:49;2.40;;;0.90;;
61096;SDS011;46977;50.936;6.908;2022-09-03T03:02:51;4.65;;;0.93;;
61096;SDS011;46977;50.936;6.908;2022-09-03T03:05:55;1.13;;;0.90;;
61096;SDS011;46977;50.936;6.908;2022-09-03T03:08:59;0.88;;;0.80;;
61096;SDS011;46977;50.936;6.908;2022-09-03T03:12:06;1.38;;;1.00;;
61096;SDS011;46977;50.936;6.908;2022-09-03T03:15:11;3.53;;;1.20;;
61096;SDS011;46977;50.936;6.908;2022-09-03T03:18:13;1.23;;;1.00;;
61096;SDS011;46977;50.936;6.908;2022-09-03T03:21:18;2.13;;;0.95;;
61096;SDS011;46977;50.936;6.908;2022-09-03T03:24:20;0.85;;;0.70;;
61096;SDS011;46977;50.936;6.908;2022-09-03T03:27:22;2.25;;;1.02;;
61096;SDS011;46977;50.936;6.908;2022-09-03T03:30:25;1.00;;;0.90;;
61096;SDS011;46977;50.936;6.908;2022-09-03T03:33:28;1.77;;;0.90;;
61096;SDS011;46977;50.936;6.908;2022-09-03T03:36:32;1.88;;;0.80;;
61096;SDS011;46977;50.936;6.908;2022-09-03T03:39:34;1.13;;;0.80;;
61096;SDS011;46977;50.936;6.908;2022-09-03T03:42:37;0.80;;;0.77;;
61096;SDS011;46977;50.936;6.908;2022-09-03T03:45:39;0.73;;;0.70;;
61096;SDS011;46977;50.936;6.908;2022-09-03T03:48:41;3.42;;;0.80;;
61096;SDS011;46977;50.936;6.908;2022-09-03T03:51:45;3.00;;;1.00;;
61096;SDS011;46977;50.936;6.908;2022-09-03T03:54:48;1.05;;;0.80;;
61096;SDS011;46977;50.936;6.908;2022-09-03T03:57:51;1.25;;;0.80;;
61096;SDS011;46977;50.936;6.908;2022-09-03T04:00:53;0.80;;;0.70;;
61096;SDS011;46977;50.936;6.908;2022-09-03T04:03:55;3.25;;;1.10;;
61096;SDS011;46977;50.936;6.908;2022-09-03T04:07:00;1.80;;;0.73;;
61096;SDS011;46977;50.936;6.908;2022-09-03T04:10:03;1.60;;;0.80;;
61096;SDS011;46977;50.936;6.908;2022-09-03T04:13:06;4.93;;;0.80;;
61096;SDS011;46977;50.936;6.908;2022-09-03T04:16:09;1.42;;;0.90;;
61096;SDS011;46977;50.936;6.908;2022-09-03T04:19:13;3.33;;;0.85;;
61096;SDS011;46977;50.936;6.908;2022-09-03T04:22:16;1.33;;;0.80;;
61096;SDS011;46977;50.936;6.908;2022-09-03T04:25:20;1.23;;;1.10;;
61096;SDS011;46977;50.936;6.908;2022-09-03T04:28:22;1.05;;;0.95;;
61096;SDS011;46977;50.936;6.908;2022-09-03T04:31:26;1.35;;;0.90;;
61096;SDS011;46977;50.936;6.908;2022-09-03T04:34:28;0.80;;;0.80;;
61096;SDS011;46977;50.936;6.908;2022-09-03T04:37:32;0.90;;;0.70;;
61096;SDS011;46977;50.936;6.908;2022-09-03T04:40:34;3.45;;;0.80;;
61096;SDS011;46977;50.936;6.908;2022-09-03T04:43:37;0.65;;;0.65;;
61096;SDS011;46977;50.936;6.908;2022-09-03T04:46:39;1.23;;;0.80;;
61096;SDS011;46977;50.936;6.908;2022-09-03T04:49:41;1.25;;;0.70;;
61096;SDS011;46977;50.936;6.908;2022-09-03T04:52:45;0.98;;;0.77;;
61096;SDS011;46977;50.936;6.908;2022-09-03T04:55:47;0.90;;;0.70;;
61096;SDS011;46977;50.936;6.908;2022-09-03T04:58:53;0.80;;;0.70;;
61096;SDS011;46977;50.936;6.908;2022-09-03T05:01:56;1.55;;;0.90;;
61096;SDS011;46977;50.936;6.908;2022-09-03T05:04:59;2.00;;;0.80;;
61096;SDS011;46977;50.936;6.908;2022-09-03T05:08:02;1.67;;;0.80;;
61096;SDS011;46977;50.936;6.908;2022-09-03T05:11:05;3.08;;;0.80;;
61096;SDS011;46977;50.936;6.908;2022-09-03T05:14:08;6.72;;;1.02;;
61096;SDS011;46977;50.936;6.908;2022-09-03T05:17:13;1.45;;;0.90;;
61096;SDS011;46977;50.936;6.908;2022-09-03T05:20:15;2.17;;;0.70;;
61096;SDS011;46977;50.936;6.908;2022-09-03T05:23:20;0.85;;;0.80;;
61096;SDS011;46977;50.936;6.908;2022-09-03T05:26:23;2.05;;;0.80;;
61096;SDS011;46977;50.936;6.908;2022-09-03T05:29:27;1.65;;;0.80;;
61096;SDS011;46977;50.936;6.908;2022-09-03T05:32:30;10.93;;;1.30;;
61096;SDS011;46977;50.936;6.908;2022-09-03T05:35:32;1.40;;;0.70;;
61096;SDS011;46977;50.936;6.908;2022-09-03T05:38:36;0.70;;;0.70;;
61096;SDS011;46977;50.936;6.908;2022-09-03T05:41:38;1.13;;;0.80;;
61096;SDS011;46977;50.936;6.908;2022-09-03T05:44:41;0.80;;;0.65;;
61096;SDS011;46977;50.936;6.908;2022-09-03T05:47:44;1.35;;;0.75;;
61096;SDS011;46977;50.936;6.908;2022-09-03T05:50:47;1.95;;;0.60;;
61096;SDS011;46977;50.936;6.908;2022-09-03T05:53:51;1.58;;;0.70;;
61096;SDS011;46977;50.936;6.908;2022-09-03T05:56:55;1.05;;;0.60;;
61096;SDS011;46977;50.936;6.908;2022-09-03T05:59:57;1.00;;;0.70;;
61096;SDS011;46977;50.936;6.908;2022-09-03T06:03:01;1.40;;;0.70;;
61096;SDS011;46977;50.936;6.908;2022-09-03T06:06:04;2.72;;;0.70;;
61096;SDS011;46977;50.936;6.908;2022-09-03T06:09:09;4.90;;;1.15;;
61096;SDS011;46977;50.936;6.908;2022-09-03T06:12:14;2.60;;;0.75;;
61096;SDS011;46977;50.936;6.908;2022-09-03T06:15:16;0.95;;;0.70;;
61096;SDS011;46977;50.936;6.908;2022-09-03T06:18:18;1.73;;;0.75;;
61096;SDS011;46977;50.936;6.908;2022-09-03T06:21:21;6.00;;;1.13;;
61096;SDS011;46977;50.936;6.908;2022-09-03T06:24:25;1.80;;;0.65;;
61096;SDS011;46977;50.936;6.908;2022-09-03T06:27:29;0.90;;;0.60;;
61096;SDS011;46977;50.936;6.908;2022-09-03T06:30:31;1.15;;;0.85;;
61096;SDS011;46977;50.936;6.908;2022-09-03T06:33:35;1.13;;;0.65;;
61096;SDS011;46977;50.936;6.908;2022-09-03T06:36:38;1.35;;;0.70;;
61096;SDS011;46977;50.936;6.908;2022-09-03T06:39:43;2.05;;;0.88;;
61096;SDS011;46977;50.936;6.908;2022-09-03T06:42:53;0.70;;;0.70;;
61096;SDS011;46977;50.936;6.908;2022-09-03T06:45:58;1.10;;;0.80;;
61096;SDS011;46977;50.936;6.908;2022-09-03T06:49:01;1.58;;;0.80;;
61096;SDS011;46977;50.936;6.908;2022-09-03T06:52:03;1.35;;;0.70;;
61096;SDS011;46977;50.936;6.908;2022-09-03T06:55:08;2.75;;;0.90;;
61096;SDS011;46977;50.936;6.908;2022-09-03T06:58:10;1.27;;;0.90;;
61096;SDS011;46977;50.936;6.908;2022-09-03T07:01:13;0.75;;;0.70;;
61096;SDS011;46977;50.936;6.908;2022-09-03T07:04:16;1.13;;;0.80;;
61096;SDS011;46977;50.936;6.908;2022-09-03T07:07:21;0.95;;;0.73;;
61096;SDS011;46977;50.936;6.908;2022-09-03T07:10:25;6.38;;;0.90;;
61096;SDS011;46977;50.936;6.908;2022-09-03T07:13:28;0.65;;;0.60;;
61096;SDS011;46977;50.936;6.908;2022-09-03T07:16:32;0.80;;;0.80;;
61096;SDS011;46977;50.936;6.908;2022-09-03T07:19:36;1.48;;;1.08;;
61096;SDS011;46977;50.936;6.908;2022-09-03T07:22:38;4.80;;;0.85;;
61096;SDS011;46977;50.936;6.908;2022-09-03T07:25:41;1.23;;;1.10;;
61096;SDS011;46977;50.936;6.908;2022-09-03T07:28:44;1.17;;;0.80;;
61096;SDS011;46977;50.936;6.908;2022-09-03T07:31:47;2.30;;;1.00;;
61096;SDS011;46977;50.936;6.908;2022-09-03T07:34:53;1.98;;;0.85;;
61096;SDS011;46977;50.936;6.908;2022-09-03T07:37:55;1.15;;;0.70;;
61096;SDS011;46977;50.936;6.908;2022-09-03T07:40:59;1.23;;;0.80;;
61096;SDS011;46977;50.936;6.908;2022-09-03T07:44:02;1.30;;;1.20;;
61096;SDS011;46977;50.936;6.908;2022-09-03T07:50:33;2.10;;;0.80;;
61096;SDS011;46977;50.936;6.908;2022-09-03T07:53:40;1.55;;;0.70;;
61096;SDS011;46977;50.936;6.908;2022-09-03T07:56:44;1.30;;;0.75;;
61096;SDS011;46977;50.936;6.908;2022-09-03T07:59:46;2.10;;;0.80;;
61096;SDS011;46977;50.936;6.908;2022-09-03T08:02:50;2.35;;;0.93;;
61096;SDS011;46977;50.936;6.908;2022-09-03T08:05:59;3.20;;;0.80;;
61096;SDS011;46977;50.936;6.908;2022-09-03T08:09:03;2.15;;;0.70;;
61096;SDS011;46977;50.936;6.908;2022-09-03T08:12:08;1.25;;;1.15;;
61096;SDS011;46977;50.936;6.908;2022-09-03T08:15:10;3.95;;;0.90;;
61096;SDS011;46977;50.936;6.908;2022-09-03T08:18:13;1.48;;;0.65;;
61096;SDS011;46977;50.936;6.908;2022-09-03T08:21:17;3.38;;;0.95;;
61096;SDS011;46977;50.936;6.908;2022-09-03T08:24:20;2.58;;;0.80;;
61096;SDS011;46977;50.936;6.908;2022-09-03T08:27:26;3.95;;;0.90;;
61096;SDS011;46977;50.936;6.908;2022-09-03T08:30:29;4.00;;;0.80;;
61096;SDS011;46977;50.936;6.908;2022-09-03T08:33:32;3.65;;;0.98;;
61096;SDS011;46977;50.936;6.908;2022-09-03T08:36:43;1.97;;;0.87;;
61096;SDS011;46977;50.936;6.908;2022-09-03T08:39:48;3.30;;;1.10;;
61096;SDS011;46977;50.936;6.908;2022-09-03T08:42:59;3.05;;;1.20;;
61096;SDS011;46977;50.936;6.908;2022-09-03T08:46:09;1.17;;;1.05;;
61096;SDS011;46977;50.936;6.908;2022-09-03T08:49:13;1.55;;;0.98;;
61096;SDS011;46977;50.936;6.908;2022-09-03T08:52:20;2.80;;;1.10;;
61096;SDS011;46977;50.936;6.908;2022-09-03T08:55:27;1.35;;;1.10;;
61096;SDS011;46977;50.936;6.908;2022-09-03T08:58:33;1.33;;;0.90;;
61096;SDS011;46977;50.936;6.908;2022-09-03T09:01:40;1.20;;;0.90;;
61096;SDS011;46977;50.936;6.908;2022-09-03T09:04:51;3.97;;;1.83;;
61096;SDS011;46977;50.936;6.908;2022-09-03T09:08:00;1.20;;;1.10;;
61096;SDS011;46977;50.936;6.908;2022-09-03T09:11:10;1.42;;;1.10;;
61096;SDS011;46977;50.936;6.908;2022-09-03T09:14:30;1.52;;;0.95;;
61096;SDS011;46977;50.936;6.908;2022-09-03T09:17:42;0.90;;;0.90;;
61096;SDS011;46977;50.936;6.908;2022-09-03T09:20:53;2.30;;;1.10;;
61096;SDS011;46977;50.936;6.908;2022-09-03T09:24:00;2.88;;;1.02;;
61096;SDS011;46977;50.936;6.908;2022-09-03T09:27:04;1.77;;;1.10;;
61096;SDS011;46977;50.936;6.908;2022-09-03T09:30:09;1.65;;;1.00;;
61096;SDS011;46977;50.936;6.908;2022-09-03T09:33:12;2.90;;;1.20;;
61096;SDS011;46977;50.936;6.908;2022-09-03T09:36:15;0.90;;;0.80;;
61096;SDS011;46977;50.936;6.908;2022-09-03T09:39:20;1.48;;;0.98;;
61096;SDS011;46977;50.936;6.908;2022-09-03T09:42:23;1.45;;;1.10;;
61096;SDS011;46977;50.936;6.908;2022-09-03T09:45:27;1.17;;;1.08;;
61096;SDS011;46977;50.936;6.908;2022-09-03T09:48:31;2.05;;;1.60;;
61096;SDS011;46977;50.936;6.908;2022-09-03T09:51:40;3.50;;;1.60;;
61096;SDS011;46977;50.936;6.908;2022-09-03T09:54:43;2.25;;;1.52;;
61096;SDS011;46977;50.936;6.908;2022-09-03T09:57:51;2.05;;;1.38;;
61096;SDS011;46977;50.936;6.908;2022-09-03T10:00:59;3.58;;;1.60;;
61096;SDS011;46977;50.936;6.908;2022-09-03T10:04:07;2.92;;;1.33;;
61096;SDS011;46977;50.936;6.908;2022-09-03T10:07:22;5.32;;;1.90;;
61096;SDS011;46977;50.936;6.908;2022-09-03T10:10:26;4.88;;;1.55;;
61096;SDS011;46977;50.936;6.908;2022-09-03T10:13:33;3.00;;;1.48;;
61096;SDS011;46977;50.936;6.908;2022-09-03T10:16:40;2.55;;;1.50;;
61096;SDS011;46977;50.936;6.908;2022-09-03T10:19:51;2.88;;;1.45;;
61096;SDS011;46977;50.936;6.908;2022-09-03T10:23:18;2.40;;;1.55;;
61096;SDS011;46977;50.936;6.908;2022-09-03T10:26:24;1.92;;;1.45;;
61096;SDS011;46977;50.936;6.908;2022-09-03T10:29:33;2.20;;;1.27;;
61096;SDS011;46977;50.936;6.908;2022-09-03T10:32:44;3.15;;;1.30;;
61096;SDS011;46977;50.936;6.908;2022-09-03T10:35:51;2.90;;;1.60;;
61096;SDS011;46977;50.936;6.908;2022-09-03T10:38:57;4.30;;;1.50;;
61096;SDS011;46977;50.936;6.908;2022-09-03T10:42:06;1.67;;;1.50;;
61096;SDS011;46977;50.936;6.908;2022-09-03T10:45:18;2.15;;;1.30;;
61096;SDS011;46977;50.936;6.908;2022-09-03T10:48:29;3.55;;;1.25;;
61096;SDS011;46977;50.936;6.908;2022-09-03T10:51:41;2.97;;;1.35;;
61096;SDS011;46977;50.936;6.908;2022-09-03T10:54:56;1.98;;;1.20;;
61096;SDS011;46977;50.936;6.908;2022-09-03T10:58:09;5.85;;;1.63;;
61096;SDS011;46977;50.936;6.908;2022-09-03T11:01:20;3.33;;;1.60;;
61096;SDS011;46977;50.936;6.908;2022-09-03T11:04:29;2.65;;;1.55;;
61096;SDS011;46977;50.936;6.908;2022-09-03T11:07:40;1.40;;;1.30;;
61096;SDS011;46977;50.936;6.908;2022-09-03T11:10:45;2.75;;;1.33;;
61096;SDS011;46977;50.936;6.908;2022-09-03T11:13:51;2.72;;;1.45;;
61096;SDS011;46977;50.936;6.908;2022-09-03T11:16:59;2.95;;;1.60;;
61096;SDS011;46977;50.936;6.908;2022-09-03T11:20:09;2.30;;;2.10;;
61096;SDS011;46977;50.936;6.908;2022-09-03T11:23:12;4.18;;;1.88;;
61096;SDS011;46977;50.936;6.908;2022-09-03T11:26:17;2.53;;;1.95;;
61096;SDS011;46977;50.936;6.908;2022-09-03T11:29:21;3.05;;;1.35;;
61096;SDS011;46977;50.936;6.908;2022-09-03T11:32:29;2.53;;;2.33;;
61096;SDS011;46977;50.936;6.908;2022-09-03T11:35:43;3.25;;;1.63;;
61096;SDS011;46977;50.936;6.908;2022-09-03T11:38:46;2.17;;;1.67;;
61096;SDS011;46977;50.936;6.908;2022-09-03T11:41:55;2.70;;;2.08;;
61096;SDS011;46977;50.936;6.908;2022-09-03T11:45:11;5.18;;;2.15;;
61096;SDS011;46977;50.936;6.908;2022-09-03T11:48:16;4.05;;;1.83;;
61096;SDS011;46977;50.936;6.908;2022-09-03T11:51:28;3.47;;;1.80;;
61096;SDS011;46977;50.936;6.908;2022-09-03T11:54:41;2.10;;;1.90;;
61096;SDS011;46977;50.936;6.908;2022-09-03T11:57:44;2.40;;;2.17;;
61096;SDS011;46977;50.936;6.908;2022-09-03T12:00:47;2.42;;;1.98;;
61096;SDS011;46977;50.936;6.908;2022-09-03T12:03:56;2.45;;;2.03;;
61096;SDS011;46977;50.936;6.908;2022-09-03T12:07:05;2.28;;;2.08;;
61096;SDS011;46977;50.936;6.908;2022-09-03T12:10:25;3.13;;;2.38;;
61096;SDS011;46977;50.936;6.908;2022-09-03T12:13:41;2.63;;;2.42;;
61096;SDS011;46977;50.936;6.908;2022-09-03T12:16:52;3.85;;;2.30;;
61096;SDS011;46977;50.936;6.908;2022-09-03T12:20:01;2.28;;;2.05;;
61096;SDS011;46977;50.936;6.908;2022-09-03T12:23:06;4.22;;;2.22;;
61096;SDS011;46977;50.936;6.908;2022-09-03T12:26:12;3.10;;;2.35;;
61096;SDS011;46977;50.936;6.908;2022-09-03T12:29:19;2.67;;;2.45;;
61096;SDS011;46977;50.936;6.908;2022-09-03T12:32:29;2.45;;;2.25;;
61096;SDS011;46977;50.936;6.908;2022-09-03T12:35:33;2.30;;;2.00;;
61096;SDS011;46977;50.936;6.908;2022-09-03T12:39:06;5.82;;;2.40;;
61096;SDS011;46977;50.936;6.908;2022-09-03T12:42:14;3.75;;;3.00;;
61096;SDS011;46977;50.936;6.908;2022-09-03T12:45:21;3.80;;;2.33;;
61096;SDS011;46977;50.936;6.908;2022-09-03T12:48:25;2.47;;;2.20;;
61096;SDS011;46977;50.936;6.908;2022-09-03T12:51:30;3.15;;;2.30;;
61096;SDS011;46977;50.936;6.908;2022-09-03T12:54:55;2.50;;;2.30;;
61096;SDS011;46977;50.936;6.908;2022-09-03T12:58:01;2.58;;;2.38;;
61096;SDS011;46977;50.936;6.908;2022-09-03T13:01:12;3.92;;;2.38;;
61096;SDS011;46977;50.936;6.908;2022-09-03T13:04:16;2.50;;;2.25;;
61096;SDS011;46977;50.936;6.908;2022-09-03T13:07:21;2.80;;;2.05;;
61096;SDS011;46977;50.936;6.908;2022-09-03T13:10:27;2.60;;;2.10;;
61096;SDS011;46977;50.936;6.908;2022-09-03T13:13:32;5.40;;;2.92;;
61096;SDS011;46977;50.936;6.908;2022-09-03T13:20:22;4.07;;;2.17;;
61096;SDS011;46977;50.936;6.908;2022-09-03T13:23:34;2.42;;;2.20;;
61096;SDS011;46977;50.936;6.908;2022-09-03T13:26:47;3.58;;;2.00;;
61096;SDS011;46977;50.936;6.908;2022-09-03T13:29:59;2.78;;;2.08;;
61096;SDS011;46977;50.936;6.908;2022-09-03T13:33:07;2.85;;;2.13;;
61096;SDS011;46977;50.936;6.908;2022-09-03T13:36:13;3.20;;;2.33;;
61096;SDS011;46977;50.936;6.908;2022-09-03T13:39:19;3.85;;;2.17;;
61096;SDS011;46977;50.936;6.908;2022-09-03T13:42:30;3.97;;;2.47;;
61096;SDS011;46977;50.936;6.908;2022-09-03T13:45:36;2.63;;;2.42;;
61096;SDS011;46977;50.936;6.908;2022-09-03T13:48:40;1.88;;;1.73;;
61096;SDS011;46977;50.936;6.908;2022-09-03T13:52:12;1.95;;;1.80;;
61096;SDS011;46977;50.936;6.908;2022-09-03T13:59:48;2.15;;;2.03;;
61096;SDS011;46977;50.936;6.908;2022-09-03T14:03:02;5.43;;;2.30;;
61096;SDS011;46977;50.936;6.908;2022-09-03T14:06:28;2.10;;;1.90;;
61096;SDS011;46977;50.936;6.908;2022-09-03T14:10:05;2.55;;;2.30;;
61096;SDS011;46977;50.936;6.908;2022-09-03T14:14:53;8.88;;;2.50;;
61096;SDS011;46977;50.936;6.908;2022-09-03T14:19:04;4.40;;;2.13;;
61096;SDS011;46977;50.936;6.908;2022-09-03T14:23:17;5.85;;;2.13;;
61096;SDS011;46977;50.936;6.908;2022-09-03T14:36:41;3.05;;;2.15;;
61096;SDS011;46977;50.936;6.908;2022-09-03T14:42:14;3.30;;;2.20;;
61096;SDS011;46977;50.936;6.908;2022-09-03T14:47:45;2.65;;;2.25;;
61096;SDS011;46977;50.936;6.908;2022-09-03T14:57:12;2.50;;;2.28;;
61096;SDS011;46977;50.936;6.908;2022-09-03T15:01:02;2.65;;;2.35;;
61096;SDS011;46977;50.936;6.908;2022-09-03T15:04:46;3.15;;;1.85;;
61096;SDS011;46977;50.936;6.908;2022-09-03T15:07:58;2.38;;;2.17;;
61096;SDS011;46977;50.936;6.908;2022-09-03T15:11:23;2.30;;;2.10;;
61096;SDS011;46977;50.936;6.908;2022-09-03T15:14:45;2.30;;;2.17;;
61096;SDS011;46977;50.936;6.908;2022-09-03T15:18:28;1.95;;;1.85;;
61096;SDS011;46977;50.936;6.908;2022-09-03T15:21:46;2.22;;;1.98;;
61096;SDS011;46977;50.936;6.908;2022-09-03T15:25:21;3.72;;;2.03;;
61096;SDS011;46977;50.936;6.908;2022-09-03T15:29:16;3.30;;;2.80;;
61096;SDS011;46977;50.936;6.908;2022-09-03T15:33:26;2.25;;;2.03;;
61096;SDS011;46977;50.936;6.908;2022-09-03T15:37:01;3.15;;;2.08;;
61096;SDS011;46977;50.936;6.908;2022-09-03T15:40:24;2.87;;;1.90;;
61096;SDS011;46977;50.936;6.908;2022-09-03T15:43:34;2.95;;;1.85;;
61096;SDS011;46977;50.936;6.908;2022-09-03T15:47:26;2.65;;;2.20;;
61096;SDS011;46977;50.936;6.908;2022-09-03T15:51:04;2.63;;;1.95;;
61096;SDS011;46977;50.936;6.908;2022-09-03T15:54:29;3.47;;;2.22;;
61096;SDS011;46977;50.936;6.908;2022-09-03T15:57:40;2.50;;;2.10;;
61096;SDS011;46977;50.936;6.908;2022-09-03T16:01:26;2.85;;;2.25;;
61096;SDS011;46977;50.936;6.908;2022-09-03T16:05:14;4.40;;;2.13;;
61096;SDS011;46977;50.936;6.908;2022-09-03T16:08:27;3.42;;;1.70;;
61096;SDS011;46977;50.936;6.908;2022-09-03T16:12:15;3.05;;;1.55;;
61096;SDS011;46977;50.936;6.908;2022-09-03T16:15:24;3.40;;;1.73;;
61096;SDS011;46977;50.936;6.908;2022-09-03T16:18:43;4.70;;;1.80;;
61096;SDS011;46977;50.936;6.908;2022-09-03T16:22:02;3.15;;;1.90;;
61096;SDS011;46977;50.936;6.908;2022-09-03T16:25:14;2.75;;;1.50;;
61096;SDS011;46977;50.936;6.908;2022-09-03T16:28:26;3.05;;;2.05;;
61096;SDS011;46977;50.936;6.908;2022-09-03T16:31:50;4.15;;;2.58;;
61096;SDS011;46977;50.936;6.908;2022-09-03T16:35:16;2.05;;;1.95;;
61096;SDS011;46977;50.936;6.908;2022-09-03T16:38:52;3.47;;;2.58;;
61096;SDS011;46977;50.936;6.908;2022-09-03T16:42:24;3.13;;;2.20;;
61096;SDS011;46977;50.936;6.908;2022-09-03T16:45:57;3.70;;;2.25;;
61096;SDS011;46977;50.936;6.908;2022-09-03T16:49:50;3.40;;;1.70;;
61096;SDS011;46977;50.936;6.908;2022-09-03T16:53:01;3.00;;;2.47;;
61096;SDS011;46977;50.936;6.908;2022-09-03T16:56:21;3.10;;;2.83;;
61096;SDS011;46977;50.936;6.908;2022-09-03T16:59:40;3.50;;;2.35;;
61096;SDS011;46977;50.936;6.908;2022-09-03T17:03:13;2.42;;;2.22;;
61096;SDS011;46977;50.936;6.908;2022-09-03T17:06:39;3.38;;;3.00;;
61096;SDS011;46977;50.936;6.908;2022-09-03T17:09:56;1.80;;;1.70;;
61096;SDS011;46977;50.936;6.908;2022-09-03T17:16:49;3.28;;;2.35;;
61096;SDS011;46977;50.936;6.908;2022-09-03T17:20:04;2.40;;;1.48;;
61096;SDS011;46977;50.936;6.908;2022-09-03T17:23:21;3.28;;;1.70;;
61096;SDS011;46977;50.936;6.908;2022-09-03T17:26:52;2.63;;;1.48;;
61096;SDS011;46977;50.936;6.908;2022-09-03T17:30:17;3.60;;;2.47;;
61096;SDS011;46977;50.936;6.908;2022-09-03T17:37:17;1.20;;;1.10;;
61096;SDS011;46977;50.936;6.908;2022-09-03T17:40:38;1.65;;;1.38;;
61096;SDS011;46977;50.936;6.908;2022-09-03T17:43:48;3.40;;;1.70;;
61096;SDS011;46977;50.936;6.908;2022-09-03T17:50:22;2.40;;;1.77;;
61096;SDS011;46977;50.936;6.908;2022-09-03T17:53:29;4.03;;;2.25;;
61096;SDS011;46977;50.936;6.908;2022-09-03T17:56:41;3.03;;;2.03;;
61096;SDS011;46977;50.936;6.908;2022-09-03T17:59:53;4.32;;;2.00;;
61096;SDS011;46977;50.936;6.908;2022-09-03T18:03:16;4.90;;;1.80;;
61096;SDS011;46977;50.936;6.908;2022-09-03T18:06:35;2.47;;;1.80;;
61096;SDS011;46977;50.936;6.908;2022-09-03T18:09:47;3.08;;;1.92;;
61096;SDS011;46977;50.936;6.908;2022-09-03T18:13:02;2.63;;;2.27;;
61096;SDS011;46977;50.936;6.908;2022-09-03T18:16:25;1.88;;;1.33;;
61096;SDS011;46977;50.936;6.908;2022-09-03T18:19:45;1.60;;;1.27;;
61096;SDS011;46977;50.936;6.908;2022-09-03T18:23:09;1.40;;;1.27;;
61096;SDS011;46977;50.936;6.908;2022-09-03T18:26:42;2.00;;;1.25;;
61096;SDS011;46977;50.936;6.908;2022-09-03T18:30:17;1.70;;;1.60;;
61096;SDS011;46977;50.936;6.908;2022-09-03T19:08:54;3.50;;;2.15;;
61096;SDS011;46977;50.936;6.908;2022-09-03T19:12:39;4.40;;;2.42;;
61096;SDS011;46977;50.936;6.908;2022-09-03T19:26:24;3.97;;;2.40;;
61096;SDS011;46977;50.936;6.908;2022-09-03T19:30:55;5.03;;;3.33;;
61096;SDS011;46977;50.936;6.908;2022-09-03T19:39:58;10.13;;;6.60;;
61096;SDS011;46977;50.936;6.908;2022-09-03T19:54:14;4.82;;;3.75;;
61096;SDS011;46977;50.936;6.908;2022-09-03T19:58:32;5.43;;;2.60;;
61096;SDS011;46977;50.936;6.908;2022-09-03T20:03:20;4.57;;;2.63;;
61096;SDS011;46977;50.936;6.908;2022-09-03T20:07:11;2.40;;;1.83;;
61096;SDS011;46977;50.936;6.908;2022-09-03T20:11:20;4.88;;;2.10;;
61096;SDS011;46977;50.936;6.908;2022-09-03T20:14:54;4.05;;;2.15;;
61096;SDS011;46977;50.936;6.908;2022-09-03T20:18:58;2.63;;;2.30;;
61096;SDS011;46977;50.936;6.908;2022-09-03T20:32:52;5.03;;;2.55;;
61096;SDS011;46977;50.936;6.908;2022-09-03T20:37:17;3.40;;;2.70;;
61096;SDS011;46977;50.936;6.908;2022-09-03T20:41:27;3.22;;;2.30;;
61096;SDS011;46977;50.936;6.908;2022-09-03T20:45:39;3.85;;;2.58;;
61096;SDS011;46977;50.936;6.908;2022-09-03T20:50:20;3.70;;;2.33;;
61096;SDS011;46977;50.936;6.908;2022-09-03T20:54:23;3.17;;;2.53;;
61096;SDS011;46977;50.936;6.908;2022-09-03T20:58:17;4.35;;;2.80;;
61096;SDS011;46977;50.936;6.908;2022-09-03T21:02:20;3.42;;;3.05;;
61096;SDS011;46977;50.936;6.908;2022-09-03T21:06:12;4.40;;;3.03;;
61096;SDS011;46977;50.936;6.908;2022-09-03T21:10:17;4.80;;;3.08;;
61096;SDS011;46977;50.936;6.908;2022-09-03T21:13:48;4.13;;;2.85;;
61096;SDS011;46977;50.936;6.908;2022-09-03T21:26:27;6.60;;;3.70;;
61096;SDS011;46977;50.936;6.908;2022-09-03T21:40:32;6.75;;;3.60;;
61096;SDS011;46977;50.936;6.908;2022-09-03T21:47:14;6.93;;;3.40;;
61096;SDS011;46977;50.936;6.908;2022-09-03T21:58:01;6.95;;;4.60;;
61096;SDS011;46977;50.936;6.908;2022-09-03T22:02:24;7.88;;;4.75;;